sensor_id;sensor_type;location;lat;lon;timestamp;P1;durP1;ratioP1;P2;durP2;ratioP2
2462;SDS011;1243;54.298;10.172;2023-09-18T00:00:50;12.23;;;11.13;;
2462;SDS011;1243;54.298;10.172;2023-09-18T00:03:17;15.43;;;10.70;;
2462;SDS011;1243;54.298;10.172;2023-09-18T00:05:48;11.67;;;10.37;;
2462;SDS011;1243;54.298;10.172;2023-09-18T00:08:14;13.63;;;10.50;;
2462;SDS011;1243;54.298;10.172;2023-09-18T00:10:40;11.53;;;10.30;;
2462;SDS011;1243;54.298;10.172;2023-09-18T00:13:07;13.43;;;12.07;;
2462;SDS011;1243;54.298;10.172;2023-09-18T00:15:32;13.87;;;11.20;;
2462;SDS011;1243;54.298;10.172;2023-09-18T00:17:58;13.60;;;11.10;;
2462;SDS011;1243;54.298;10.172;2023-09-18T00:20:24;11.90;;;10.80;;
2462;SDS011;1243;54.298;10.172;2023-09-18T00:22:55;12.57;;;10.37;;
2462;SDS011;1243;54.298;10.172;2023-09-18T00:25:21;13.53;;;11.27;;
2462;SDS011;1243;54.298;10.172;2023-09-18T00:27:47;13.03;;;11.70;;
2462;SDS011;1243;54.298;10.172;2023-09-18T00:30:14;12.63;;;11.27;;
2462;SDS011;1243;54.298;10.172;2023-09-18T00:32:39;13.00;;;11.70;;
2462;SDS011;1243;54.298;10.172;2023-09-18T00:35:05;13.70;;;11.20;;
2462;SDS011;1243;54.298;10.172;2023-09-18T00:37:31;19.20;;;11.07;;
2462;SDS011;1243;54.298;10.172;2023-09-18T00:39:57;17.10;;;10.73;;
2462;SDS011;1243;54.298;10.172;2023-09-18T00:42:23;14.53;;;11.20;;
2462;SDS011;1243;54.298;10.172;2023-09-18T00:44:49;12.07;;;10.97;;
2462;SDS011;1243;54.298;10.172;2023-09-18T00:47:17;10.70;;;9.63;;
2462;SDS011;1243;54.298;10.172;2023-09-18T00:49:45;11.90;;;10.73;;
2462;SDS011;1243;54.298;10.172;2023-09-18T00:52:14;12.47;;;11.33;;
2462;SDS011;1243;54.298;10.172;2023-09-18T00:54:41;12.90;;;10.97;;
2462;SDS011;1243;54.298;10.172;2023-09-18T00:57:08;11.23;;;9.97;;
2462;SDS011;1243;54.298;10.172;2023-09-18T00:59:35;13.50;;;11.10;;
2462;SDS011;1243;54.298;10.172;2023-09-18T01:02:01;12.40;;;11.20;;
2462;SDS011;1243;54.298;10.172;2023-09-18T01:04:28;11.97;;;9.73;;
2462;SDS011;1243;54.298;10.172;2023-09-18T01:06:55;12.30;;;10.07;;
2462;SDS011;1243;54.298;10.172;2023-09-18T01:09:23;12.33;;;10.93;;
2462;SDS011;1243;54.298;10.172;2023-09-18T01:12:01;18.03;;;10.10;;
2462;SDS011;1243;54.298;10.172;2023-09-18T01:17:15;12.23;;;10.73;;
2462;SDS011;1243;54.298;10.172;2023-09-18T01:19:45;11.83;;;10.60;;
2462;SDS011;1243;54.298;10.172;2023-09-18T01:22:19;17.10;;;11.73;;
2462;SDS011;1243;54.298;10.172;2023-09-18T01:24:45;11.60;;;10.40;;
2462;SDS011;1243;54.298;10.172;2023-09-18T01:27:16;12.50;;;11.20;;
2462;SDS011;1243;54.298;10.172;2023-09-18T01:29:43;11.37;;;10.20;;
2462;SDS011;1243;54.298;10.172;2023-09-18T01:32:12;11.03;;;9.93;;
2462;SDS011;1243;54.298;10.172;2023-09-18T01:34:42;15.40;;;12.23;;
2462;SDS011;1243;54.298;10.172;2023-09-18T01:37:15;12.33;;;11.13;;
2462;SDS011;1243;54.298;10.172;2023-09-18T01:39:46;11.43;;;10.33;;
2462;SDS011;1243;54.298;10.172;2023-09-18T01:42:14;13.83;;;10.90;;
2462;SDS011;1243;54.298;10.172;2023-09-18T01:44:40;12.00;;;10.80;;
2462;SDS011;1243;54.298;10.172;2023-09-18T01:47:07;12.47;;;11.17;;
2462;SDS011;1243;54.298;10.172;2023-09-18T01:49:35;12.27;;;11.07;;
2462;SDS011;1243;54.298;10.172;2023-09-18T01:52:02;13.93;;;10.87;;
2462;SDS011;1243;54.298;10.172;2023-09-18T01:54:29;12.87;;;11.57;;
2462;SDS011;1243;54.298;10.172;2023-09-18T01:56:55;10.90;;;9.80;;
2462;SDS011;1243;54.298;10.172;2023-09-18T01:59:21;13.97;;;10.40;;
2462;SDS011;1243;54.298;10.172;2023-09-18T02:01:48;11.47;;;10.37;;
2462;SDS011;1243;54.298;10.172;2023-09-18T02:04:14;14.00;;;11.23;;
2462;SDS011;1243;54.298;10.172;2023-09-18T02:06:40;12.40;;;11.10;;
2462;SDS011;1243;54.298;10.172;2023-09-18T02:09:06;11.30;;;10.30;;
2462;SDS011;1243;54.298;10.172;2023-09-18T02:11:38;11.87;;;10.60;;
2462;SDS011;1243;54.298;10.172;2023-09-18T02:14:05;14.70;;;11.53;;
2462;SDS011;1243;54.298;10.172;2023-09-18T02:16:35;12.83;;;11.53;;
2462;SDS011;1243;54.298;10.172;2023-09-18T02:19:03;12.00;;;10.90;;
2462;SDS011;1243;54.298;10.172;2023-09-18T02:21:29;12.00;;;10.80;;
2462;SDS011;1243;54.298;10.172;2023-09-18T02:23:56;12.20;;;11.10;;
2462;SDS011;1243;54.298;10.172;2023-09-18T02:26:23;12.00;;;10.80;;
2462;SDS011;1243;54.298;10.172;2023-09-18T02:28:51;14.73;;;11.07;;
2462;SDS011;1243;54.298;10.172;2023-09-18T02:31:18;11.97;;;10.73;;
2462;SDS011;1243;54.298;10.172;2023-09-18T02:33:44;14.17;;;11.07;;
2462;SDS011;1243;54.298;10.172;2023-09-18T02:36:11;13.27;;;11.17;;
2462;SDS011;1243;54.298;10.172;2023-09-18T02:38:37;10.67;;;9.67;;
2462;SDS011;1243;54.298;10.172;2023-09-18T02:41:03;11.53;;;10.43;;
2462;SDS011;1243;54.298;10.172;2023-09-18T02:43:29;10.67;;;9.63;;
2462;SDS011;1243;54.298;10.172;2023-09-18T02:45:54;11.00;;;9.97;;
2462;SDS011;1243;54.298;10.172;2023-09-18T02:48:20;10.60;;;9.60;;
2462;SDS011;1243;54.298;10.172;2023-09-18T02:50:46;11.87;;;10.53;;
2462;SDS011;1243;54.298;10.172;2023-09-18T02:53:18;10.70;;;9.80;;
2462;SDS011;1243;54.298;10.172;2023-09-18T02:55:46;11.40;;;10.40;;
2462;SDS011;1243;54.298;10.172;2023-09-18T02:58:13;10.40;;;9.50;;
2462;SDS011;1243;54.298;10.172;2023-09-18T03:00:42;11.33;;;10.13;;
2462;SDS011;1243;54.298;10.172;2023-09-18T03:03:09;11.63;;;10.43;;
2462;SDS011;1243;54.298;10.172;2023-09-18T03:05:36;11.70;;;10.70;;
2462;SDS011;1243;54.298;10.172;2023-09-18T03:08:02;11.83;;;10.50;;
2462;SDS011;1243;54.298;10.172;2023-09-18T03:10:28;10.77;;;9.90;;
2462;SDS011;1243;54.298;10.172;2023-09-18T03:13:02;12.20;;;10.90;;
2462;SDS011;1243;54.298;10.172;2023-09-18T03:15:28;10.87;;;9.97;;
2462;SDS011;1243;54.298;10.172;2023-09-18T03:17:55;11.27;;;10.23;;
2462;SDS011;1243;54.298;10.172;2023-09-18T03:20:22;10.10;;;8.77;;
2462;SDS011;1243;54.298;10.172;2023-09-18T03:22:49;10.80;;;9.70;;
2462;SDS011;1243;54.298;10.172;2023-09-18T03:25:19;11.27;;;10.07;;
2462;SDS011;1243;54.298;10.172;2023-09-18T03:27:45;10.10;;;9.20;;
2462;SDS011;1243;54.298;10.172;2023-09-18T03:30:10;11.03;;;9.93;;
2462;SDS011;1243;54.298;10.172;2023-09-18T03:32:42;12.70;;;11.07;;
2462;SDS011;1243;54.298;10.172;2023-09-18T03:35:08;13.20;;;9.60;;
2462;SDS011;1243;54.298;10.172;2023-09-18T03:37:42;11.90;;;10.70;;
2462;SDS011;1243;54.298;10.172;2023-09-18T03:40:19;9.90;;;8.90;;
2462;SDS011;1243;54.298;10.172;2023-09-18T03:42:45;11.17;;;10.17;;
2462;SDS011;1243;54.298;10.172;2023-09-18T03:45:12;11.30;;;10.20;;
2462;SDS011;1243;54.298;10.172;2023-09-18T03:47:38;11.53;;;10.40;;
2462;SDS011;1243;54.298;10.172;2023-09-18T03:50:08;14.50;;;9.57;;
2462;SDS011;1243;54.298;10.172;2023-09-18T03:52:34;10.83;;;9.80;;
2462;SDS011;1243;54.298;10.172;2023-09-18T03:55:01;11.80;;;10.60;;
2462;SDS011;1243;54.298;10.172;2023-09-18T03:57:27;11.97;;;10.83;;
2462;SDS011;1243;54.298;10.172;2023-09-18T03:59:53;12.33;;;11.03;;
2462;SDS011;1243;54.298;10.172;2023-09-18T04:02:18;12.33;;;10.77;;
2462;SDS011;1243;54.298;10.172;2023-09-18T04:04:46;11.23;;;10.20;;
2462;SDS011;1243;54.298;10.172;2023-09-18T04:07:11;11.73;;;10.63;;
2462;SDS011;1243;54.298;10.172;2023-09-18T04:09:41;13.30;;;10.50;;
2462;SDS011;1243;54.298;10.172;2023-09-18T04:12:07;12.63;;;10.80;;
2462;SDS011;1243;54.298;10.172;2023-09-18T04:14:33;11.30;;;10.40;;
2462;SDS011;1243;54.298;10.172;2023-09-18T04:16:59;11.27;;;10.27;;
2462;SDS011;1243;54.298;10.172;2023-09-18T04:19:28;11.70;;;10.60;;
2462;SDS011;1243;54.298;10.172;2023-09-18T04:21:54;12.50;;;11.00;;
2462;SDS011;1243;54.298;10.172;2023-09-18T04:24:20;12.27;;;11.07;;
2462;SDS011;1243;54.298;10.172;2023-09-18T04:26:46;11.17;;;10.17;;
2462;SDS011;1243;54.298;10.172;2023-09-18T04:29:11;12.70;;;9.90;;
2462;SDS011;1243;54.298;10.172;2023-09-18T04:31:37;12.60;;;10.83;;
2462;SDS011;1243;54.298;10.172;2023-09-18T04:34:03;12.60;;;10.33;;
2462;SDS011;1243;54.298;10.172;2023-09-18T04:36:29;13.70;;;10.20;;
2462;SDS011;1243;54.298;10.172;2023-09-18T04:38:55;14.20;;;11.57;;
2462;SDS011;1243;54.298;10.172;2023-09-18T04:41:20;12.83;;;11.53;;
2462;SDS011;1243;54.298;10.172;2023-09-18T04:43:46;12.00;;;10.67;;
2462;SDS011;1243;54.298;10.172;2023-09-18T04:46:12;11.93;;;10.80;;
2462;SDS011;1243;54.298;10.172;2023-09-18T04:48:38;11.40;;;10.20;;
2462;SDS011;1243;54.298;10.172;2023-09-18T04:51:04;12.00;;;10.90;;
2462;SDS011;1243;54.298;10.172;2023-09-18T04:53:30;11.00;;;10.00;;
2462;SDS011;1243;54.298;10.172;2023-09-18T04:55:57;13.33;;;11.00;;
2462;SDS011;1243;54.298;10.172;2023-09-18T04:58:23;11.47;;;10.47;;
2462;SDS011;1243;54.298;10.172;2023-09-18T05:00:58;11.03;;;9.93;;
2462;SDS011;1243;54.298;10.172;2023-09-18T05:03:25;11.40;;;9.50;;
2462;SDS011;1243;54.298;10.172;2023-09-18T05:05:54;11.00;;;9.97;;
2462;SDS011;1243;54.298;10.172;2023-09-18T05:08:20;17.83;;;11.43;;
2462;SDS011;1243;54.298;10.172;2023-09-18T05:10:46;11.93;;;10.90;;
2462;SDS011;1243;54.298;10.172;2023-09-18T05:13:12;11.93;;;10.63;;
2462;SDS011;1243;54.298;10.172;2023-09-18T05:15:38;12.97;;;10.20;;
2462;SDS011;1243;54.298;10.172;2023-09-18T05:18:04;13.63;;;11.03;;
2462;SDS011;1243;54.298;10.172;2023-09-18T05:20:30;11.33;;;10.10;;
2462;SDS011;1243;54.298;10.172;2023-09-18T05:22:57;12.10;;;11.00;;
2462;SDS011;1243;54.298;10.172;2023-09-18T05:25:27;12.00;;;10.80;;
2462;SDS011;1243;54.298;10.172;2023-09-18T05:27:57;11.50;;;10.40;;
2462;SDS011;1243;54.298;10.172;2023-09-18T05:30:32;11.27;;;10.27;;
2462;SDS011;1243;54.298;10.172;2023-09-18T05:33:00;12.77;;;11.47;;
2462;SDS011;1243;54.298;10.172;2023-09-18T05:35:33;10.93;;;9.97;;
2462;SDS011;1243;54.298;10.172;2023-09-18T05:38:01;12.63;;;10.77;;
2462;SDS011;1243;54.298;10.172;2023-09-18T05:40:28;10.23;;;9.33;;
2462;SDS011;1243;54.298;10.172;2023-09-18T05:42:54;13.43;;;10.60;;
2462;SDS011;1243;54.298;10.172;2023-09-18T05:45:20;12.60;;;11.40;;
2462;SDS011;1243;54.298;10.172;2023-09-18T05:47:47;12.00;;;10.90;;
2462;SDS011;1243;54.298;10.172;2023-09-18T05:50:13;11.63;;;10.43;;
2462;SDS011;1243;54.298;10.172;2023-09-18T05:52:41;11.13;;;10.10;;
2462;SDS011;1243;54.298;10.172;2023-09-18T05:55:08;12.33;;;11.20;;
2462;SDS011;1243;54.298;10.172;2023-09-18T05:57:34;14.20;;;10.17;;
2462;SDS011;1243;54.298;10.172;2023-09-18T06:00:00;12.73;;;10.90;;
2462;SDS011;1243;54.298;10.172;2023-09-18T06:02:26;12.90;;;11.53;;
2462;SDS011;1243;54.298;10.172;2023-09-18T06:04:55;10.60;;;9.50;;
2462;SDS011;1243;54.298;10.172;2023-09-18T06:07:23;10.97;;;9.87;;
2462;SDS011;1243;54.298;10.172;2023-09-18T06:09:50;12.63;;;10.53;;
2462;SDS011;1243;54.298;10.172;2023-09-18T06:12:15;11.00;;;10.00;;
2462;SDS011;1243;54.298;10.172;2023-09-18T06:14:41;11.03;;;10.10;;
2462;SDS011;1243;54.298;10.172;2023-09-18T06:17:07;11.90;;;10.27;;
2462;SDS011;1243;54.298;10.172;2023-09-18T06:19:34;11.40;;;10.20;;
2462;SDS011;1243;54.298;10.172;2023-09-18T06:22:00;13.00;;;10.40;;
2462;SDS011;1243;54.298;10.172;2023-09-18T06:24:26;10.23;;;9.23;;
2462;SDS011;1243;54.298;10.172;2023-09-18T06:26:52;11.70;;;10.70;;
2462;SDS011;1243;54.298;10.172;2023-09-18T06:29:18;11.17;;;10.23;;
2462;SDS011;1243;54.298;10.172;2023-09-18T06:31:44;13.30;;;10.63;;
2462;SDS011;1243;54.298;10.172;2023-09-18T06:34:09;10.03;;;8.80;;
2462;SDS011;1243;54.298;10.172;2023-09-18T06:36:35;10.57;;;9.50;;
2462;SDS011;1243;54.298;10.172;2023-09-18T06:39:02;9.77;;;8.80;;
2462;SDS011;1243;54.298;10.172;2023-09-18T06:41:28;10.33;;;9.23;;
2462;SDS011;1243;54.298;10.172;2023-09-18T06:43:53;11.70;;;9.20;;
2462;SDS011;1243;54.298;10.172;2023-09-18T06:46:19;13.10;;;10.13;;
2462;SDS011;1243;54.298;10.172;2023-09-18T06:48:45;9.93;;;9.03;;
2462;SDS011;1243;54.298;10.172;2023-09-18T06:51:14;9.90;;;9.00;;
2462;SDS011;1243;54.298;10.172;2023-09-18T06:53:40;11.03;;;10.00;;
2462;SDS011;1243;54.298;10.172;2023-09-18T06:56:06;10.57;;;9.67;;
2462;SDS011;1243;54.298;10.172;2023-09-18T06:58:34;11.97;;;8.90;;
2462;SDS011;1243;54.298;10.172;2023-09-18T07:01:00;17.43;;;9.30;;
2462;SDS011;1243;54.298;10.172;2023-09-18T07:03:25;12.53;;;10.73;;
2462;SDS011;1243;54.298;10.172;2023-09-18T07:05:51;10.27;;;9.17;;
2462;SDS011;1243;54.298;10.172;2023-09-18T07:08:17;11.07;;;9.23;;
2462;SDS011;1243;54.298;10.172;2023-09-18T07:10:48;9.80;;;8.80;;
2462;SDS011;1243;54.298;10.172;2023-09-18T07:13:15;8.90;;;7.90;;
2462;SDS011;1243;54.298;10.172;2023-09-18T07:15:41;10.43;;;9.43;;
2462;SDS011;1243;54.298;10.172;2023-09-18T07:18:06;10.07;;;8.53;;
2462;SDS011;1243;54.298;10.172;2023-09-18T07:20:32;10.17;;;9.07;;
2462;SDS011;1243;54.298;10.172;2023-09-18T07:22:58;10.30;;;9.40;;
2462;SDS011;1243;54.298;10.172;2023-09-18T07:25:24;10.90;;;9.10;;
2462;SDS011;1243;54.298;10.172;2023-09-18T07:27:49;12.40;;;8.03;;
2462;SDS011;1243;54.298;10.172;2023-09-18T07:30:15;10.60;;;7.83;;
2462;SDS011;1243;54.298;10.172;2023-09-18T07:32:42;8.67;;;7.93;;
2462;SDS011;1243;54.298;10.172;2023-09-18T07:35:08;10.10;;;9.20;;
2462;SDS011;1243;54.298;10.172;2023-09-18T07:37:35;9.00;;;8.23;;
2462;SDS011;1243;54.298;10.172;2023-09-18T07:40:02;9.23;;;8.43;;
2462;SDS011;1243;54.298;10.172;2023-09-18T07:42:31;10.13;;;9.13;;
2462;SDS011;1243;54.298;10.172;2023-09-18T07:44:58;10.83;;;9.73;;
2462;SDS011;1243;54.298;10.172;2023-09-18T07:47:23;9.67;;;8.37;;
2462;SDS011;1243;54.298;10.172;2023-09-18T07:49:49;8.43;;;7.37;;
2462;SDS011;1243;54.298;10.172;2023-09-18T07:52:16;8.80;;;8.00;;
2462;SDS011;1243;54.298;10.172;2023-09-18T07:54:44;7.87;;;7.23;;
2462;SDS011;1243;54.298;10.172;2023-09-18T07:57:10;9.07;;;8.17;;
2462;SDS011;1243;54.298;10.172;2023-09-18T07:59:36;9.23;;;8.33;;
2462;SDS011;1243;54.298;10.172;2023-09-18T08:02:02;8.33;;;7.63;;
2462;SDS011;1243;54.298;10.172;2023-09-18T08:04:30;8.40;;;7.70;;
2462;SDS011;1243;54.298;10.172;2023-09-18T08:06:56;9.37;;;8.50;;
2462;SDS011;1243;54.298;10.172;2023-09-18T08:09:22;8.87;;;8.07;;
2462;SDS011;1243;54.298;10.172;2023-09-18T08:11:49;7.60;;;6.90;;
2462;SDS011;1243;54.298;10.172;2023-09-18T08:14:15;9.40;;;8.67;;
2462;SDS011;1243;54.298;10.172;2023-09-18T08:16:42;8.17;;;7.47;;
2462;SDS011;1243;54.298;10.172;2023-09-18T08:19:07;8.20;;;7.40;;
2462;SDS011;1243;54.298;10.172;2023-09-18T08:21:34;8.60;;;7.90;;
2462;SDS011;1243;54.298;10.172;2023-09-18T08:24:00;8.10;;;7.40;;
2462;SDS011;1243;54.298;10.172;2023-09-18T08:26:26;8.37;;;7.60;;
2462;SDS011;1243;54.298;10.172;2023-09-18T08:28:53;8.33;;;7.53;;
2462;SDS011;1243;54.298;10.172;2023-09-18T08:31:19;8.17;;;7.47;;
2462;SDS011;1243;54.298;10.172;2023-09-18T08:33:45;8.23;;;7.30;;
2462;SDS011;1243;54.298;10.172;2023-09-18T08:36:10;8.53;;;7.23;;
2462;SDS011;1243;54.298;10.172;2023-09-18T08:38:37;7.87;;;7.17;;
2462;SDS011;1243;54.298;10.172;2023-09-18T08:41:03;8.40;;;7.10;;
2462;SDS011;1243;54.298;10.172;2023-09-18T08:43:31;11.40;;;8.70;;
2462;SDS011;1243;54.298;10.172;2023-09-18T08:45:57;8.00;;;7.30;;
2462;SDS011;1243;54.298;10.172;2023-09-18T08:48:26;8.63;;;6.80;;
2462;SDS011;1243;54.298;10.172;2023-09-18T08:51:03;7.73;;;6.23;;
2462;SDS011;1243;54.298;10.172;2023-09-18T08:53:35;8.33;;;7.63;;
2462;SDS011;1243;54.298;10.172;2023-09-18T08:56:01;7.13;;;6.53;;
2462;SDS011;1243;54.298;10.172;2023-09-18T08:58:33;7.73;;;7.00;;
2462;SDS011;1243;54.298;10.172;2023-09-18T09:01:02;7.60;;;6.87;;
2462;SDS011;1243;54.298;10.172;2023-09-18T09:03:29;7.50;;;6.80;;
2462;SDS011;1243;54.298;10.172;2023-09-18T09:05:55;9.70;;;6.60;;
2462;SDS011;1243;54.298;10.172;2023-09-18T09:08:22;7.27;;;6.60;;
2462;SDS011;1243;54.298;10.172;2023-09-18T09:10:48;6.90;;;6.23;;
2462;SDS011;1243;54.298;10.172;2023-09-18T09:13:14;6.93;;;6.23;;
2462;SDS011;1243;54.298;10.172;2023-09-18T09:15:46;7.90;;;6.10;;
2462;SDS011;1243;54.298;10.172;2023-09-18T09:18:14;7.00;;;6.30;;
2462;SDS011;1243;54.298;10.172;2023-09-18T09:20:41;6.60;;;6.10;;
2462;SDS011;1243;54.298;10.172;2023-09-18T09:23:17;6.53;;;6.03;;
2462;SDS011;1243;54.298;10.172;2023-09-18T09:25:43;7.30;;;6.60;;
2462;SDS011;1243;54.298;10.172;2023-09-18T09:28:08;7.37;;;6.70;;
2462;SDS011;1243;54.298;10.172;2023-09-18T09:30:35;6.87;;;6.27;;
2462;SDS011;1243;54.298;10.172;2023-09-18T09:33:02;8.73;;;6.33;;
2462;SDS011;1243;54.298;10.172;2023-09-18T09:35:32;6.20;;;5.70;;
2462;SDS011;1243;54.298;10.172;2023-09-18T09:38:00;6.33;;;5.93;;
2462;SDS011;1243;54.298;10.172;2023-09-18T09:40:31;6.93;;;6.40;;
2462;SDS011;1243;54.298;10.172;2023-09-18T09:42:57;7.93;;;6.50;;
2462;SDS011;1243;54.298;10.172;2023-09-18T09:45:30;6.73;;;6.07;;
2462;SDS011;1243;54.298;10.172;2023-09-18T09:48:03;11.90;;;5.80;;
2462;SDS011;1243;54.298;10.172;2023-09-18T09:50:33;5.57;;;5.17;;
2462;SDS011;1243;54.298;10.172;2023-09-18T09:53:11;6.33;;;5.83;;
2462;SDS011;1243;54.298;10.172;2023-09-18T09:55:38;6.80;;;6.20;;
2462;SDS011;1243;54.298;10.172;2023-09-18T09:58:04;6.30;;;5.80;;
2462;SDS011;1243;54.298;10.172;2023-09-18T10:00:33;6.20;;;5.70;;
2462;SDS011;1243;54.298;10.172;2023-09-18T10:03:14;6.00;;;5.50;;
2462;SDS011;1243;54.298;10.172;2023-09-18T10:05:44;5.97;;;5.47;;
2462;SDS011;1243;54.298;10.172;2023-09-18T10:08:19;5.50;;;5.10;;
2462;SDS011;1243;54.298;10.172;2023-09-18T10:10:48;8.20;;;5.00;;
2462;SDS011;1243;54.298;10.172;2023-09-18T10:13:17;6.37;;;5.77;;
2462;SDS011;1243;54.298;10.172;2023-09-18T10:15:51;5.97;;;5.57;;
2462;SDS011;1243;54.298;10.172;2023-09-18T10:18:28;6.43;;;5.93;;
2462;SDS011;1243;54.298;10.172;2023-09-18T10:21:27;6.80;;;5.70;;
2462;SDS011;1243;54.298;10.172;2023-09-18T10:26:55;6.10;;;5.50;;
2462;SDS011;1243;54.298;10.172;2023-09-18T10:29:23;6.67;;;4.77;;
2462;SDS011;1243;54.298;10.172;2023-09-18T10:31:53;5.97;;;5.07;;
2462;SDS011;1243;54.298;10.172;2023-09-18T10:34:20;6.67;;;5.60;;
2462;SDS011;1243;54.298;10.172;2023-09-18T10:36:47;8.00;;;6.37;;
2462;SDS011;1243;54.298;10.172;2023-09-18T10:39:14;6.10;;;5.10;;
2462;SDS011;1243;54.298;10.172;2023-09-18T10:41:46;6.63;;;6.03;;
2462;SDS011;1243;54.298;10.172;2023-09-18T10:44:12;5.90;;;5.33;;
2462;SDS011;1243;54.298;10.172;2023-09-18T10:46:41;7.63;;;6.07;;
2462;SDS011;1243;54.298;10.172;2023-09-18T10:49:07;8.00;;;5.40;;
2462;SDS011;1243;54.298;10.172;2023-09-18T10:51:33;8.53;;;5.73;;
2462;SDS011;1243;54.298;10.172;2023-09-18T10:53:59;6.50;;;5.70;;
2462;SDS011;1243;54.298;10.172;2023-09-18T10:56:25;6.97;;;5.70;;
2462;SDS011;1243;54.298;10.172;2023-09-18T10:58:58;7.67;;;6.20;;
2462;SDS011;1243;54.298;10.172;2023-09-18T11:01:25;8.87;;;6.10;;
2462;SDS011;1243;54.298;10.172;2023-09-18T11:03:52;10.63;;;6.57;;
2462;SDS011;1243;54.298;10.172;2023-09-18T11:06:24;6.17;;;5.60;;
2462;SDS011;1243;54.298;10.172;2023-09-18T11:08:56;6.97;;;6.27;;
2462;SDS011;1243;54.298;10.172;2023-09-18T11:11:26;7.93;;;6.13;;
2462;SDS011;1243;54.298;10.172;2023-09-18T11:13:55;8.80;;;5.77;;
2462;SDS011;1243;54.298;10.172;2023-09-18T11:21:26;9.93;;;5.90;;
2462;SDS011;1243;54.298;10.172;2023-09-18T11:26:36;6.93;;;6.20;;
2462;SDS011;1243;54.298;10.172;2023-09-18T11:29:07;5.77;;;4.97;;
2462;SDS011;1243;54.298;10.172;2023-09-18T11:32:07;5.30;;;4.80;;
2462;SDS011;1243;54.298;10.172;2023-09-18T11:34:31;6.17;;;5.30;;
2462;SDS011;1243;54.298;10.172;2023-09-18T11:36:58;6.63;;;5.90;;
2462;SDS011;1243;54.298;10.172;2023-09-18T11:39:33;6.97;;;5.30;;
2462;SDS011;1243;54.298;10.172;2023-09-18T11:42:06;6.53;;;5.60;;
2462;SDS011;1243;54.298;10.172;2023-09-18T11:44:43;7.30;;;6.13;;
2462;SDS011;1243;54.298;10.172;2023-09-18T11:47:16;11.83;;;5.80;;
2462;SDS011;1243;54.298;10.172;2023-09-18T11:49:47;6.00;;;5.40;;
2462;SDS011;1243;54.298;10.172;2023-09-18T11:52:22;6.70;;;6.00;;
2462;SDS011;1243;54.298;10.172;2023-09-18T11:54:50;10.33;;;6.33;;
2462;SDS011;1243;54.298;10.172;2023-09-18T11:57:17;5.80;;;5.20;;
2462;SDS011;1243;54.298;10.172;2023-09-18T11:59:44;6.93;;;6.23;;
2462;SDS011;1243;54.298;10.172;2023-09-18T12:02:28;12.07;;;6.33;;
2462;SDS011;1243;54.298;10.172;2023-09-18T12:05:15;9.63;;;6.27;;
2462;SDS011;1243;54.298;10.172;2023-09-18T12:07:43;9.13;;;6.53;;
2462;SDS011;1243;54.298;10.172;2023-09-18T12:10:11;6.50;;;5.20;;
2462;SDS011;1243;54.298;10.172;2023-09-18T12:12:39;7.47;;;5.93;;
2462;SDS011;1243;54.298;10.172;2023-09-18T12:15:06;8.57;;;6.80;;
2462;SDS011;1243;54.298;10.172;2023-09-18T12:17:35;12.03;;;6.57;;
2462;SDS011;1243;54.298;10.172;2023-09-18T12:20:01;7.10;;;5.87;;
2462;SDS011;1243;54.298;10.172;2023-09-18T12:22:29;11.43;;;6.60;;
2462;SDS011;1243;54.298;10.172;2023-09-18T12:25:08;8.73;;;6.20;;
2462;SDS011;1243;54.298;10.172;2023-09-18T12:27:35;11.43;;;7.13;;
2462;SDS011;1243;54.298;10.172;2023-09-18T12:30:03;9.67;;;7.07;;
2462;SDS011;1243;54.298;10.172;2023-09-18T12:32:32;6.50;;;5.87;;
2462;SDS011;1243;54.298;10.172;2023-09-18T12:35:01;6.57;;;5.47;;
2462;SDS011;1243;54.298;10.172;2023-09-18T12:37:28;9.97;;;6.57;;
2462;SDS011;1243;54.298;10.172;2023-09-18T12:39:53;14.93;;;6.73;;
2462;SDS011;1243;54.298;10.172;2023-09-18T12:42:19;7.50;;;6.87;;
2462;SDS011;1243;54.298;10.172;2023-09-18T12:44:48;13.03;;;5.50;;
2462;SDS011;1243;54.298;10.172;2023-09-18T12:47:15;13.93;;;6.43;;
2462;SDS011;1243;54.298;10.172;2023-09-18T12:49:41;7.83;;;6.03;;
2462;SDS011;1243;54.298;10.172;2023-09-18T12:52:07;10.90;;;6.27;;
2462;SDS011;1243;54.298;10.172;2023-09-18T12:54:36;9.03;;;5.20;;
2462;SDS011;1243;54.298;10.172;2023-09-18T12:57:06;8.90;;;6.63;;
2462;SDS011;1243;54.298;10.172;2023-09-18T12:59:35;9.13;;;6.07;;
2462;SDS011;1243;54.298;10.172;2023-09-18T13:02:03;6.50;;;5.80;;
2462;SDS011;1243;54.298;10.172;2023-09-18T13:04:30;8.50;;;7.13;;
2462;SDS011;1243;54.298;10.172;2023-09-18T13:09:35;8.03;;;7.13;;
2462;SDS011;1243;54.298;10.172;2023-09-18T13:12:02;8.17;;;5.63;;
2462;SDS011;1243;54.298;10.172;2023-09-18T13:14:29;10.00;;;7.70;;
2462;SDS011;1243;54.298;10.172;2023-09-18T13:17:01;7.10;;;5.77;;
2462;SDS011;1243;54.298;10.172;2023-09-18T13:19:30;8.57;;;6.90;;
2462;SDS011;1243;54.298;10.172;2023-09-18T13:21:55;10.80;;;6.83;;
2462;SDS011;1243;54.298;10.172;2023-09-18T13:24:25;6.87;;;6.27;;
2462;SDS011;1243;54.298;10.172;2023-09-18T13:26:52;6.93;;;5.37;;
2462;SDS011;1243;54.298;10.172;2023-09-18T13:29:18;8.50;;;5.93;;
2462;SDS011;1243;54.298;10.172;2023-09-18T13:31:44;6.93;;;5.80;;
2462;SDS011;1243;54.298;10.172;2023-09-18T13:34:10;11.50;;;5.70;;
2462;SDS011;1243;54.298;10.172;2023-09-18T13:36:36;5.73;;;5.20;;
2462;SDS011;1243;54.298;10.172;2023-09-18T13:39:03;6.23;;;5.50;;
2462;SDS011;1243;54.298;10.172;2023-09-18T13:41:29;11.97;;;6.33;;
2462;SDS011;1243;54.298;10.172;2023-09-18T13:43:56;7.27;;;5.70;;
2462;SDS011;1243;54.298;10.172;2023-09-18T13:46:22;6.20;;;5.60;;
2462;SDS011;1243;54.298;10.172;2023-09-18T13:48:48;9.73;;;5.60;;
2462;SDS011;1243;54.298;10.172;2023-09-18T13:51:14;6.67;;;5.83;;
2462;SDS011;1243;54.298;10.172;2023-09-18T13:53:40;5.67;;;5.17;;
2462;SDS011;1243;54.298;10.172;2023-09-18T13:56:06;9.10;;;5.47;;
2462;SDS011;1243;54.298;10.172;2023-09-18T13:58:32;9.17;;;5.53;;
2462;SDS011;1243;54.298;10.172;2023-09-18T14:00:58;9.50;;;6.20;;
2462;SDS011;1243;54.298;10.172;2023-09-18T14:03:24;8.53;;;5.60;;
2462;SDS011;1243;54.298;10.172;2023-09-18T14:05:50;8.70;;;5.70;;
2462;SDS011;1243;54.298;10.172;2023-09-18T14:08:16;6.37;;;5.17;;
2462;SDS011;1243;54.298;10.172;2023-09-18T14:10:43;8.03;;;6.03;;
2462;SDS011;1243;54.298;10.172;2023-09-18T14:13:09;6.93;;;5.33;;
2462;SDS011;1243;54.298;10.172;2023-09-18T14:15:35;10.60;;;6.10;;
2462;SDS011;1243;54.298;10.172;2023-09-18T14:18:02;7.73;;;5.73;;
2462;SDS011;1243;54.298;10.172;2023-09-18T14:20:28;8.43;;;6.77;;
2462;SDS011;1243;54.298;10.172;2023-09-18T14:22:54;6.57;;;6.00;;
2462;SDS011;1243;54.298;10.172;2023-09-18T14:25:20;9.70;;;6.43;;
2462;SDS011;1243;54.298;10.172;2023-09-18T14:27:47;10.60;;;6.23;;
2462;SDS011;1243;54.298;10.172;2023-09-18T14:30:13;7.93;;;7.20;;
2462;SDS011;1243;54.298;10.172;2023-09-18T14:32:39;9.43;;;6.10;;
2462;SDS011;1243;54.298;10.172;2023-09-18T14:35:05;8.40;;;6.10;;
2462;SDS011;1243;54.298;10.172;2023-09-18T14:37:33;9.07;;;6.37;;
2462;SDS011;1243;54.298;10.172;2023-09-18T14:39:59;7.90;;;7.10;;
2462;SDS011;1243;54.298;10.172;2023-09-18T14:42:25;7.40;;;6.70;;
2462;SDS011;1243;54.298;10.172;2023-09-18T14:44:52;11.30;;;6.90;;
2462;SDS011;1243;54.298;10.172;2023-09-18T14:47:18;14.53;;;6.73;;
2462;SDS011;1243;54.298;10.172;2023-09-18T14:49:44;12.87;;;6.47;;
2462;SDS011;1243;54.298;10.172;2023-09-18T14:52:13;8.47;;;5.17;;
2462;SDS011;1243;54.298;10.172;2023-09-18T14:54:41;15.20;;;5.60;;
2462;SDS011;1243;54.298;10.172;2023-09-18T14:57:06;6.20;;;4.73;;
2462;SDS011;1243;54.298;10.172;2023-09-18T14:59:32;11.90;;;6.17;;
2462;SDS011;1243;54.298;10.172;2023-09-18T15:01:58;6.60;;;5.00;;
2462;SDS011;1243;54.298;10.172;2023-09-18T15:04:23;6.37;;;4.30;;
2462;SDS011;1243;54.298;10.172;2023-09-18T15:06:49;7.33;;;4.33;;